Time,TemperatureF,DewpointF,PressureIn,WindDirection,WindDirectionDegrees,WindSpeedMPH,WindSpeedGustMPH,Humidity,HourlyPrecipIn,Conditions,Clouds,dailyrainin,SoftwareType,DateUTC
2013-01-19 00:02:00,30.7,16.9,26.82,South,180,0.0,0.0,56,0.00,,,0.00,VWS V14.01,2013-01-19 07:02:00,
2013-01-19 00:07:00,30.0,16.2,26.82,South,180,0.0,0.0,56,0.00,,,0.00,VWS V14.01,2013-01-19 07:07:00,
2013-01-19 00:12:00,29.4,15.7,26.82,SW,225,0.0,0.0,56,0.00,,,0.00,VWS V14.01,2013-01-19 07:12:00,
2013-01-19 00:17:00,29.1,15.8,26.81,WNW,292,0.0,0.0,57,0.00,,,0.00,VWS V14.01,2013-01-19 07:17:00,
2013-01-19 00:22:00,28.9,16.0,26.82,West,270,0.0,0.0,58,0.00,,,0.00,VWS V14.01,2013-01-19 07:22:00,
2013-01-19 00:27:00,28.9,16.0,26.82,NNW,338,0.0,0.0,58,0.00,,,0.00,VWS V14.01,2013-01-19 07:27:00,
2013-01-19 00:32:00,28.5,16.0,26.83,WNW,292,0.0,0.0,59,0.00,,,0.00,VWS V14.01,2013-01-19 07:32:00,
2013-01-19 00:37:00,28.5,16.0,26.83,NW,315,0.0,0.0,59,0.00,,,0.00,VWS V14.01,2013-01-19 07:37:00,
2013-01-19 00:42:00,28.5,16.0,26.83,WNW,292,0.0,0.0,59,0.00,,,0.00,VWS V14.01,2013-01-19 07:42:00,
2013-01-19 00:47:00,28.5,16.0,26.82,West,270,0.0,0.0,59,0.00,,,0.00,VWS V14.01,2013-01-19 07:47:00,
2013-01-19 00:52:00,28.9,16.4,26.83,West,270,0.0,0.0,59,0.00,,,0.00,VWS V14.01,2013-01-19 07:52:00,
2013-01-19 00:57:00,28.9,16.4,26.83,West,270,0.0,0.0,59,0.00,,,0.00,VWS V14.01,2013-01-19 07:57:00,
2013-01-19 01:02:00,29.1,16.2,26.83,NW,315,0.0,0.0,58,0.00,,,0.00,VWS V14.01,2013-01-19 08:02:00,
2013-01-19 01:08:00,29.1,16.2,26.83,WNW,292,0.0,0.0,58,0.00,,,0.00,VWS V14.01,2013-01-19 08:08:00,
2013-01-19 01:13:00,29.3,16.4,26.83,NW,315,0.0,0.0,58,0.00,,,0.00,VWS V14.01,2013-01-19 08:13:00,
2013-01-19 01:18:00,29.3,16.4,26.84,NW,315,0.0,0.0,58,0.00,,,0.00,VWS V14.01,2013-01-19 08:18:00,
2013-01-19 01:23:00,30.0,16.6,26.84,WNW,292,0.0,2.4,57,0.00,,,0.00,VWS V14.01,2013-01-19 08:23:00,
2013-01-19 01:28:00,30.5,17.1,26.84,WNW,292,3.5,3.5,57,0.00,,,0.00,VWS V14.01,2013-01-19 08:28:00,
2013-01-19 01:33:00,31.1,17.7,26.84,WNW,292,3.1,3.1,57,0.00,,,0.00,VWS V14.01,2013-01-19 08:33:00,
2013-01-19 01:38:00,32.3,18.4,26.84,WNW,292,3.5,5.1,56,0.00,,,0.00,VWS V14.01,2013-01-19 08:38:00,
2013-01-19 01:43:00,33.0,18.6,26.84,NW,315,3.5,5.1,55,0.00,,,0.00,VWS V14.01,2013-01-19 08:43:00,
2013-01-19 01:48:00,34.3,19.4,26.85,WNW,292,13.4,13.4,54,0.00,,,0.00,VWS V14.01,2013-01-19 08:48:00,
2013-01-19 01:53:00,35.2,19.4,26.85,WNW,292,0.0,13.4,52,0.00,,,0.00,VWS V14.01,2013-01-19 08:53:00,
2013-01-19 01:58:00,35.9,19.5,26.85,ESE,112,1.7,13.4,51,0.00,,,0.00,VWS V14.01,2013-01-19 08:58:00,
2013-01-19 02:03:00,37.0,20.1,26.85,NNW,338,3.3,5.1,50,0.00,,,0.00,VWS V14.01,2013-01-19 09:03:00,
2013-01-19 02:08:00,37.2,19.8,26.85,WNW,292,0.0,6.2,49,0.00,,,0.00,VWS V14.01,2013-01-19 09:08:00,
2013-01-19 02:13:00,37.5,20.1,26.85,NW,315,5.1,6.2,49,0.00,,,0.00,VWS V14.01,2013-01-19 09:13:00,
2013-01-19 02:18:00,37.5,19.6,26.86,NW,315,0.0,2.2,48,0.00,,,0.00,VWS V14.01,2013-01-19 09:18:00,
2013-01-19 02:23:00,37.4,19.5,26.86,WNW,292,0.0,2.2,48,0.00,,,0.00,VWS V14.01,2013-01-19 09:23:00,
2013-01-19 02:28:00,37.2,19.3,26.86,WNW,292,0.0,2.2,48,0.00,,,0.00,VWS V14.01,2013-01-19 09:28:00,
2013-01-19 02:34:00,37.0,19.1,26.86,West,270,0.0,0.0,48,0.00,,,0.00,VWS V14.01,2013-01-19 09:34:00,
2013-01-19 02:39:00,36.6,18.8,26.86,West,270,0.0,0.0,48,0.00,,,0.00,VWS V14.01,2013-01-19 09:39:00,
2013-01-19 02:44:00,36.3,18.5,26.86,West,270,0.0,1.5,48,0.00,,,0.00,VWS V14.01,2013-01-19 09:44:00,
2013-01-19 02:49:00,35.7,18.0,26.86,West,270,0.0,0.0,48,0.00,,,0.00,VWS V14.01,2013-01-19 09:49:00,
2013-01-19 02:54:00,35.2,17.5,26.86,NW,315,0.0,0.0,48,0.00,,,0.00,VWS V14.01,2013-01-19 09:54:00,
2013-01-19 02:59:00,34.8,17.1,26.87,WNW,292,0.0,0.0,48,0.00,,,0.00,VWS V14.01,2013-01-19 09:59:00,
2013-01-19 03:04:00,34.3,16.7,26.86,West,270,0.0,0.0,48,0.00,,,0.00,VWS V14.01,2013-01-19 10:04:00,
2013-01-19 03:10:00,33.8,16.7,26.86,NW,315,0.0,0.0,49,0.00,,,0.00,VWS V14.01,2013-01-19 10:10:00,
2013-01-19 03:15:00,33.4,16.8,26.86,West,270,0.0,2.9,50,0.00,,,0.00,VWS V14.01,2013-01-19 10:15:00,
2013-01-19 03:20:00,33.2,16.6,26.86,WNW,292,0.0,0.0,50,0.00,,,0.00,VWS V14.01,2013-01-19 10:20:00,
2013-01-19 03:25:00,32.7,16.1,26.87,WNW,292,0.0,0.0,50,0.00,,,0.00,VWS V14.01,2013-01-19 10:25:00,
2013-01-19 03:30:00,32.3,16.2,26.87,NW,315,0.0,0.0,51,0.00,,,0.00,VWS V14.01,2013-01-19 10:30:00,
2013-01-19 03:35:00,31.8,15.8,26.87,WNW,292,0.0,0.0,51,0.00,,,0.00,VWS V14.01,2013-01-19 10:35:00,
2013-01-19 03:40:00,31.6,16.0,26.88,NNW,338,1.5,2.6,52,0.00,,,0.00,VWS V14.01,2013-01-19 10:40:00,
2013-01-19 03:45:00,31.2,15.6,26.87,NW,315,0.0,0.0,52,0.00,,,0.00,VWS V14.01,2013-01-19 10:45:00,
2013-01-19 03:50:00,30.9,15.4,26.87,West,270,0.0,0.0,52,0.00,,,0.00,VWS V14.01,2013-01-19 10:50:00,
2013-01-19 03:56:00,30.9,15.4,26.87,WNW,292,0.0,0.0,52,0.00,,,0.00,VWS V14.01,2013-01-19 10:56:00,
2013-01-19 04:01:00,30.7,15.6,26.87,WNW,292,0.0,0.0,53,0.00,,,0.00,VWS V14.01,2013-01-19 11:01:00,
2013-01-19 04:06:00,30.7,15.6,26.88,NNW,338,0.0,0.0,53,0.00,,,0.00,VWS V14.01,2013-01-19 11:06:00,
2013-01-19 04:11:00,30.3,15.2,26.87,NNW,338,0.0,0.0,53,0.00,,,0.00,VWS V14.01,2013-01-19 11:11:00,
2013-01-19 05:48:00,34.8,17.1,26.89,ESE,112,0.0,0.0,48,0.00,,,0.00,VWS V14.01,2013-01-19 12:48:00,
2013-01-19 05:49:00,34.8,17.1,26.89,ESE,112,0.0,0.0,48,0.00,,,0.00,VWS V14.01,2013-01-19 12:49:00,
2013-01-19 05:50:00,34.5,16.9,26.89,WSW,248,0.0,0.0,48,0.00,,,0.00,VWS V14.01,2013-01-19 12:50:00,
2013-01-19 05:55:00,33.8,16.2,26.90,WSW,248,0.0,0.0,48,0.00,,,0.00,VWS V14.01,2013-01-19 12:55:00,
2013-01-19 05:58:00,33.4,16.3,26.90,SW,225,0.0,0.0,49,0.00,,,0.00,VWS V14.01,2013-01-19 12:58:00,
2013-01-19 06:03:00,32.5,15.9,26.90,WNW,292,0.0,0.0,50,0.00,,,0.00,VWS V14.01,2013-01-19 13:03:00,
2013-01-19 06:08:00,31.8,15.8,26.90,WNW,292,0.0,0.0,51,0.00,,,0.00,VWS V14.01,2013-01-19 13:08:00,
2013-01-19 06:14:00,31.2,15.6,26.91,NNW,338,2.2,2.2,52,0.00,,,0.00,VWS V14.01,2013-01-19 13:14:00,
2013-01-19 06:19:00,30.9,15.4,26.91,North,0,0.0,2.2,52,0.00,,,0.00,VWS V14.01,2013-01-19 13:19:00,
2013-01-19 06:24:00,30.7,15.6,26.91,WNW,292,0.0,2.2,53,0.00,,,0.00,VWS V14.01,2013-01-19 13:24:00,
2013-01-19 06:29:00,30.7,16.0,26.91,NNW,338,1.1,2.2,54,0.00,,,0.00,VWS V14.01,2013-01-19 13:29:00,
2013-01-19 06:34:00,31.2,16.9,26.91,West,270,0.0,12.0,55,0.00,,,0.00,VWS V14.01,2013-01-19 13:34:00,
2013-01-19 06:39:00,32.9,18.1,26.91,NNW,338,3.1,12.0,54,0.00,,,0.00,VWS V14.01,2013-01-19 13:39:00,
2013-01-19 06:44:00,34.1,18.8,26.91,WNW,292,2.2,12.0,53,0.00,,,0.00,VWS V14.01,2013-01-19 13:44:00,
2013-01-19 06:50:00,35.2,19.4,26.91,NNW,338,12.9,12.9,52,0.00,,,0.00,VWS V14.01,2013-01-19 13:50:00,
2013-01-19 06:55:00,36.6,19.7,26.91,North,0,7.1,12.9,50,0.00,,,0.00,VWS V14.01,2013-01-19 13:55:00,
2013-01-19 07:00:00,37.2,19.8,26.91,NW,315,10.0,12.9,49,0.00,,,0.00,VWS V14.01,2013-01-19 14:00:00,
2013-01-19 07:05:00,37.7,19.8,26.91,NW,315,4.0,9.8,48,0.00,,,0.00,VWS V14.01,2013-01-19 14:05:00,
2013-01-19 07:10:00,38.4,19.9,26.92,NE,45,6.0,11.1,47,0.00,,,0.00,VWS V14.01,2013-01-19 14:10:00,
2013-01-19 07:15:00,39.0,20.0,26.92,WNW,292,10.5,11.1,46,0.00,,,0.00,VWS V14.01,2013-01-19 14:15:00,
2013-01-19 07:20:00,39.3,20.3,26.92,NNW,338,6.0,6.0,46,0.00,,,0.00,VWS V14.01,2013-01-19 14:20:00,
2013-01-19 07:25:00,39.3,19.8,26.92,NNE,22,7.1,13.4,45,0.00,,,0.00,VWS V14.01,2013-01-19 14:25:00,
2013-01-19 07:30:00,39.7,20.1,26.93,NNW,338,7.1,7.1,45,0.00,,,0.00,VWS V14.01,2013-01-19 14:30:00,
2013-01-19 07:36:00,40.2,20.6,26.92,NNW,338,7.3,7.3,45,0.00,,,0.00,VWS V14.01,2013-01-19 14:36:00,
2013-01-19 07:42:00,42.6,22.2,26.93,NW,315,4.2,7.3,44,0.00,,,0.00,VWS V14.01,2013-01-19 14:42:00,
2013-01-19 07:47:00,44.9,22.6,26.93,NNW,338,4.0,4.0,41,0.00,,,0.00,VWS V14.01,2013-01-19 14:47:00,
2013-01-19 07:53:00,46.2,22.6,26.94,NNE,22,5.3,6.9,39,0.00,,,0.00,VWS V14.01,2013-01-19 14:53:00,
2013-01-19 07:58:00,47.4,23.1,26.94,NNE,22,4.6,8.2,38,0.00,,,0.00,VWS V14.01,2013-01-19 14:58:00,
2013-01-19 08:03:00,48.3,23.3,26.94,North,0,2.4,2.4,37,0.00,,,0.00,VWS V14.01,2013-01-19 15:03:00,
2013-01-19 08:08:00,49.8,23.9,26.94,North,0,8.9,8.9,36,0.00,,,0.00,VWS V14.01,2013-01-19 15:08:00,
2013-01-19 08:13:00,50.7,24.1,26.95,NW,315,12.5,12.5,35,0.00,,,0.00,VWS V14.01,2013-01-19 15:13:00,
2013-01-19 08:18:00,51.4,24.0,26.95,NNE,22,5.8,9.6,34,0.00,,,0.00,VWS V14.01,2013-01-19 15:18:00,
2013-01-19 08:23:00,51.9,23.7,26.95,NNW,338,0.0,9.6,33,0.00,,,0.00,VWS V14.01,2013-01-19 15:23:00,
2013-01-19 08:28:00,52.8,24.5,26.95,NNW,338,4.2,9.6,33,0.00,,,0.00,VWS V14.01,2013-01-19 15:28:00,
2013-01-19 08:33:00,53.6,24.5,26.95,NW,315,5.1,8.5,32,0.00,,,0.00,VWS V14.01,2013-01-19 15:33:00,
2013-01-19 08:38:00,54.3,25.1,26.96,NNW,338,11.8,11.8,32,0.00,,,0.00,VWS V14.01,2013-01-19 15:38:00,
2013-01-19 08:44:00,56.1,25.1,26.96,North,0,6.4,12.7,30,0.00,,,0.00,VWS V14.01,2013-01-19 15:44:00,
2013-01-19 08:49:00,57.0,25.9,26.96,North,0,15.6,15.6,30,0.00,,,0.00,VWS V14.01,2013-01-19 15:49:00,
2013-01-19 08:54:00,58.2,26.1,26.97,North,0,5.1,15.6,29,0.00,,,0.00,VWS V14.01,2013-01-19 15:54:00,
2013-01-19 08:59:00,60.4,27.2,26.96,NNW,338,2.4,15.6,28,0.00,,,0.00,VWS V14.01,2013-01-19 15:59:00,
2013-01-19 09:04:00,61.3,27.1,26.97,NE,45,9.6,9.6,27,0.00,,,0.00,VWS V14.01,2013-01-19 16:04:00,
2013-01-19 09:09:00,62.0,26.8,26.97,North,0,9.8,11.8,26,0.00,,,0.00,VWS V14.01,2013-01-19 16:09:00,
2013-01-19 09:14:00,62.6,26.3,26.97,NNE,22,11.6,17.8,25,0.00,,,0.00,VWS V14.01,2013-01-19 16:14:00,
2013-01-19 09:19:00,62.4,26.1,26.97,North,0,11.1,11.1,25,0.00,,,0.00,VWS V14.01,2013-01-19 16:19:00,
2013-01-19 09:24:00,63.3,25.9,26.98,NNW,338,14.9,14.9,24,0.00,,,0.00,VWS V14.01,2013-01-19 16:24:00,
2013-01-19 09:29:00,62.4,25.2,26.99,NNW,338,10.5,14.9,24,0.00,,,0.00,VWS V14.01,2013-01-19 16:29:00,
2013-01-19 09:34:00,60.6,24.6,26.99,North,0,21.0,21.0,25,0.00,,,0.00,VWS V14.01,2013-01-19 16:34:00,
2013-01-19 09:39:00,59.3,24.4,26.99,NNE,22,4.6,21.0,26,0.00,,,0.00,VWS V14.01,2013-01-19 16:39:00,
2013-01-19 09:44:00,58.8,24.0,26.99,North,0,14.5,21.0,26,0.00,,,0.00,VWS V14.01,2013-01-19 16:44:00,
2013-01-19 09:49:00,59.9,25.0,26.99,WNW,292,10.9,10.9,26,0.00,,,0.00,VWS V14.01,2013-01-19 16:49:00,
2013-01-19 09:54:00,60.6,25.5,26.99,NW,315,12.9,14.9,26,0.00,,,0.00,VWS V14.01,2013-01-19 16:54:00,
2013-01-19 09:59:00,61.5,25.4,27.00,NNE,22,17.2,17.2,25,0.00,,,0.00,VWS V14.01,2013-01-19 16:59:00,
2013-01-19 10:04:00,60.9,24.9,27.01,North,0,17.8,17.8,25,0.00,,,0.00,VWS V14.01,2013-01-19 17:04:00,
2013-01-19 10:09:00,60.9,24.9,27.01,NNW,338,15.4,17.8,25,0.00,,,0.00,VWS V14.01,2013-01-19 17:09:00,
2013-01-19 10:15:00,60.4,25.4,27.01,NW,315,18.1,18.1,26,0.00,,,0.00,VWS V14.01,2013-01-19 17:15:00,
2013-01-19 10:20:00,59.5,25.5,27.02,North,0,12.5,18.7,27,0.00,,,0.00,VWS V14.01,2013-01-19 17:20:00,
2013-01-19 10:25:00,58.8,25.8,27.02,WSW,248,18.3,18.7,28,0.00,,,0.00,VWS V14.01,2013-01-19 17:25:00,
2013-01-19 10:31:00,59.1,25.2,27.02,NNW,338,14.7,14.7,27,0.00,,,0.00,VWS V14.01,2013-01-19 17:31:00,
2013-01-19 10:37:00,58.6,25.6,27.03,NNW,338,13.6,15.8,28,0.00,,,0.00,VWS V14.01,2013-01-19 17:37:00,
2013-01-19 10:42:00,59.5,25.5,27.03,NNE,22,18.7,18.7,27,0.00,,,0.00,VWS V14.01,2013-01-19 17:42:00,
2013-01-19 10:48:00,59.7,24.8,27.03,NNW,338,10.7,23.4,26,0.00,,,0.00,VWS V14.01,2013-01-19 17:48:00,
2013-01-19 10:54:00,60.4,26.3,27.03,North,0,17.0,23.4,27,0.00,,,0.00,VWS V14.01,2013-01-19 17:54:00,
2013-01-19 11:00:00,60.4,25.4,27.03,NE,45,8.7,23.4,26,0.00,,,0.00,VWS V14.01,2013-01-19 18:00:00,
2013-01-19 11:05:00,60.0,26.0,27.03,NNW,338,19.6,19.6,27,0.00,,,0.00,VWS V14.01,2013-01-19 18:05:00,
2013-01-19 11:12:00,62.2,26.0,27.02,ENE,68,9.6,19.6,25,0.00,,,0.00,VWS V14.01,2013-01-19 18:12:00,
2013-01-19 11:18:00,62.4,26.1,27.03,NNW,338,21.0,21.0,25,0.00,,,0.00,VWS V14.01,2013-01-19 18:18:00,
2013-01-19 11:23:00,62.7,26.4,27.03,North,0,12.3,21.0,25,0.00,,,0.00,VWS V14.01,2013-01-19 18:23:00,
2013-01-19 11:30:00,61.5,25.4,27.03,NNW,338,11.8,21.0,25,0.00,,,0.00,VWS V14.01,2013-01-19 18:30:00,
2013-01-19 11:35:00,61.1,25.0,27.02,North,0,18.5,19.4,25,0.00,,,0.00,VWS V14.01,2013-01-19 18:35:00,
2013-01-19 11:41:00,59.7,24.8,27.03,NW,315,10.2,19.4,26,0.00,,,0.00,VWS V14.01,2013-01-19 18:41:00,
2013-01-19 11:46:00,60.4,26.3,27.04,NNW,338,9.1,10.0,27,0.00,,,0.00,VWS V14.01,2013-01-19 18:46:00,
2013-01-19 11:54:00,59.3,25.4,27.03,NW,315,16.7,16.7,27,0.00,,,0.00,VWS V14.01,2013-01-19 18:54:00,
2013-01-19 11:59:00,57.9,25.0,27.04,North,0,16.1,16.7,28,0.00,,,0.00,VWS V14.01,2013-01-19 18:59:00,
2013-01-19 12:05:00,57.3,25.3,27.04,NNE,22,8.9,8.9,29,0.00,,,0.00,VWS V14.01,2013-01-19 19:05:00,
2013-01-19 12:12:00,57.3,24.5,27.03,NE,45,6.0,13.4,28,0.00,,,0.00,VWS V14.01,2013-01-19 19:12:00,
2013-01-19 12:18:00,56.3,24.5,27.03,WNW,292,18.1,18.1,29,0.00,,,0.00,VWS V14.01,2013-01-19 19:18:00,
2013-01-19 12:24:00,55.7,24.0,27.03,North,0,14.7,18.1,29,0.00,,,0.00,VWS V14.01,2013-01-19 19:24:00,
2013-01-19 12:30:00,53.9,24.0,27.04,NW,315,13.6,18.1,31,0.00,,,0.00,VWS V14.01,2013-01-19 19:30:00,
2013-01-19 12:37:00,51.2,23.1,27.04,North,0,19.2,19.2,33,0.00,,,0.00,VWS V14.01,2013-01-19 19:37:00,
2013-01-19 12:43:00,50.7,23.4,27.04,WNW,292,14.0,19.2,34,0.00,,,0.00,VWS V14.01,2013-01-19 19:43:00,
2013-01-19 12:48:00,50.5,23.2,27.04,North,0,14.3,14.3,34,0.00,,,0.00,VWS V14.01,2013-01-19 19:48:00,
2013-01-19 12:55:00,49.2,23.4,27.04,NW,315,14.5,14.9,36,0.00,,,0.00,VWS V14.01,2013-01-19 19:55:00,
2013-01-19 13:00:00,49.2,23.4,27.04,NNW,338,14.3,14.9,36,0.00,,,0.00,VWS V14.01,2013-01-19 20:00:00,
2013-01-19 13:05:00,48.7,23.0,27.04,NNW,338,22.3,22.3,36,0.00,,,0.00,VWS V14.01,2013-01-19 20:05:00,
2013-01-19 13:10:00,48.9,23.1,27.04,NNW,338,11.1,22.3,36,0.00,,,0.00,VWS V14.01,2013-01-19 20:10:00,
2013-01-19 13:16:00,48.5,23.4,27.04,NE,45,9.6,9.6,37,0.00,,,0.00,VWS V14.01,2013-01-19 20:16:00,
2013-01-19 13:22:00,48.0,23.0,27.04,NW,315,8.2,13.6,37,0.00,,,0.00,VWS V14.01,2013-01-19 20:22:00,
2013-01-19 13:27:00,48.0,23.0,27.04,North,0,12.9,13.6,37,0.00,,,0.00,VWS V14.01,2013-01-19 20:27:00,
2013-01-19 13:33:00,48.0,23.0,27.04,North,0,5.1,8.2,37,0.00,,,0.00,VWS V14.01,2013-01-19 20:33:00,
2013-01-19 13:38:00,48.0,23.6,27.05,NNE,22,16.7,19.4,38,0.00,,,0.00,VWS V14.01,2013-01-19 20:38:00,
2013-01-19 13:44:00,48.0,23.6,27.05,NW,315,12.7,19.4,38,0.00,,,0.00,VWS V14.01,2013-01-19 20:44:00,
2013-01-19 13:49:00,47.4,23.7,27.05,NW,315,18.1,19.4,39,0.00,,,0.00,VWS V14.01,2013-01-19 20:49:00,
2013-01-19 13:55:00,46.5,23.5,27.04,NNW,338,8.5,19.4,40,0.00,,,0.00,VWS V14.01,2013-01-19 20:55:00,
2013-01-19 14:01:00,45.3,23.6,27.05,NNW,338,16.7,16.7,42,0.00,,,0.00,VWS V14.01,2013-01-19 21:01:00,
2013-01-19 14:06:00,44.7,23.6,27.05,NNW,338,18.1,18.1,43,0.00,,,0.00,VWS V14.01,2013-01-19 21:06:00,
2013-01-19 14:12:00,44.4,23.9,27.05,NW,315,15.2,18.1,44,0.00,,,0.00,VWS V14.01,2013-01-19 21:12:00,
2013-01-19 14:18:00,44.2,23.7,27.05,North,0,12.3,14.5,44,0.00,,,0.00,VWS V14.01,2013-01-19 21:18:00,
2013-01-19 14:23:00,44.0,23.5,27.06,North,0,9.1,17.2,44,0.00,,,0.00,VWS V14.01,2013-01-19 21:23:00,
2013-01-19 14:30:00,43.7,23.8,27.05,North,0,16.7,19.4,45,0.00,,,0.00,VWS V14.01,2013-01-19 21:30:00,
2013-01-19 14:40:00,42.9,23.6,27.06,North,0,13.4,13.4,46,0.00,,,0.00,VWS V14.01,2013-01-19 21:40:00,
2013-01-19 14:45:00,42.4,23.6,27.06,NE,45,18.3,18.3,47,0.00,,,0.00,VWS V14.01,2013-01-19 21:45:00,
2013-01-19 14:50:00,42.0,23.8,27.07,NNW,338,12.7,18.3,48,0.00,,,0.00,VWS V14.01,2013-01-19 21:50:00,
2013-01-19 14:56:00,41.7,23.5,27.07,NW,315,14.0,18.3,48,0.00,,,0.00,VWS V14.01,2013-01-19 21:56:00,
2013-01-19 15:04:00,41.5,23.3,27.07,NW,315,16.7,18.7,48,0.00,,,0.00,VWS V14.01,2013-01-19 22:04:00,
2013-01-19 15:12:00,41.5,23.3,27.07,North,0,10.0,18.7,48,0.00,,,0.00,VWS V14.01,2013-01-19 22:12:00,
2013-01-19 15:17:00,41.5,23.3,27.08,North,0,8.9,12.7,48,0.00,,,0.00,VWS V14.01,2013-01-19 22:17:00,
2013-01-19 15:23:00,41.3,23.1,27.07,NNW,338,18.3,18.3,48,0.00,,,0.00,VWS V14.01,2013-01-19 22:23:00,
2013-01-19 15:28:00,41.1,22.9,27.08,NNE,22,9.1,18.3,48,0.00,,,0.00,VWS V14.01,2013-01-19 22:28:00,
2013-01-19 15:33:00,40.8,23.1,27.08,NE,45,16.5,19.9,49,0.00,,,0.00,VWS V14.01,2013-01-19 22:33:00,
2013-01-19 15:39:00,40.2,22.6,27.08,NNW,338,17.8,19.9,49,0.00,,,0.00,VWS V14.01,2013-01-19 22:39:00,
2013-01-19 15:45:00,39.9,22.3,27.08,NNW,338,20.5,20.5,49,0.00,,,0.00,VWS V14.01,2013-01-19 22:45:00,
2013-01-19 15:50:00,39.5,21.9,27.09,North,0,9.1,13.8,49,0.00,,,0.00,VWS V14.01,2013-01-19 22:50:00,
2013-01-19 15:56:00,39.0,22.0,27.09,North,0,16.1,16.1,50,0.00,,,0.00,VWS V14.01,2013-01-19 22:56:00,
2013-01-19 16:02:00,38.4,21.9,27.09,NNW,338,13.6,13.6,51,0.00,,,0.00,VWS V14.01,2013-01-19 23:02:00,
2013-01-19 16:08:00,38.1,21.6,27.09,NW,315,9.6,13.6,51,0.00,,,0.00,VWS V14.01,2013-01-19 23:08:00,
2013-01-19 16:13:00,37.7,21.7,27.09,NW,315,14.0,14.9,52,0.00,,,0.00,VWS V14.01,2013-01-19 23:13:00,
2013-01-19 16:18:00,37.2,21.7,27.10,North,0,10.2,10.2,53,0.00,,,0.00,VWS V14.01,2013-01-19 23:18:00,
2013-01-19 16:24:00,37.2,21.7,27.10,NNW,338,11.4,11.4,53,0.00,,,0.00,VWS V14.01,2013-01-19 23:24:00,
2013-01-19 16:30:00,36.3,21.3,27.10,NNW,338,8.0,13.8,54,0.00,,,0.00,VWS V14.01,2013-01-19 23:30:00,
2013-01-19 16:35:00,35.9,21.3,27.10,NNW,338,9.3,9.3,55,0.00,,,0.00,VWS V14.01,2013-01-19 23:35:00,
2013-01-19 16:42:00,35.4,21.3,27.09,NNW,338,7.6,9.6,56,0.00,,,0.00,VWS V14.01,2013-01-19 23:42:00,
2013-01-19 16:49:00,34.8,20.7,27.10,NNW,338,6.4,7.6,56,0.00,,,0.00,VWS V14.01,2013-01-19 23:49:00,
2013-01-19 16:54:00,34.5,20.4,27.09,NNW,338,3.3,11.1,56,0.00,,,0.00,VWS V14.01,2013-01-19 23:54:00,
2013-01-19 17:00:00,34.3,20.2,27.09,North,0,6.0,11.1,56,0.00,,,0.00,VWS V14.01,2013-01-20 00:00:00,
2013-01-19 17:06:00,33.8,19.8,27.09,NNE,22,7.6,7.6,56,0.00,,,0.00,VWS V14.01,2013-01-20 00:06:00,
2013-01-19 17:11:00,33.4,19.4,27.10,NW,315,4.9,8.5,56,0.00,,,0.00,VWS V14.01,2013-01-20 00:11:00,
2013-01-19 17:17:00,33.2,19.2,27.10,NNW,338,6.0,6.0,56,0.00,,,0.00,VWS V14.01,2013-01-20 00:17:00,
2013-01-19 17:23:00,32.9,18.9,27.10,North,0,6.2,8.9,56,0.00,,,0.00,VWS V14.01,2013-01-20 00:23:00,
2013-01-19 17:28:00,32.7,19.2,27.10,NNW,338,4.9,8.9,57,0.00,,,0.00,VWS V14.01,2013-01-20 00:28:00,
2013-01-19 17:36:00,32.1,18.6,27.10,NW,315,4.6,4.6,57,0.00,,,0.00,VWS V14.01,2013-01-20 00:36:00,
2013-01-19 17:44:00,31.8,18.3,27.10,NNW,338,3.1,5.1,57,0.00,,,0.00,VWS V14.01,2013-01-20 00:44:00,
2013-01-19 17:49:00,31.8,18.3,27.10,North,0,2.6,4.0,57,0.00,,,0.00,VWS V14.01,2013-01-20 00:49:00,
2013-01-19 17:55:00,31.6,18.5,27.10,North,0,0.0,4.0,58,0.00,,,0.00,VWS V14.01,2013-01-20 00:55:00,
2013-01-19 18:00:00,31.4,18.4,27.09,NNW,338,5.1,5.1,58,0.00,,,0.00,VWS V14.01,2013-01-20 01:00:00,
2013-01-19 18:06:00,31.2,18.2,27.10,NNE,22,8.0,8.0,58,0.00,,,0.00,VWS V14.01,2013-01-20 01:06:00,
2013-01-19 18:11:00,30.7,18.1,27.10,North,0,6.9,8.9,59,0.00,,,0.00,VWS V14.01,2013-01-20 01:11:00,
2013-01-19 18:17:00,30.5,17.9,27.10,NE,45,8.9,8.9,59,0.00,,,0.00,VWS V14.01,2013-01-20 01:17:00,
2013-01-19 18:22:00,30.0,17.8,27.10,ENE,68,8.5,8.9,60,0.00,,,0.00,VWS V14.01,2013-01-20 01:22:00,
2013-01-19 18:28:00,29.4,17.6,27.10,NE,45,7.3,9.3,61,0.00,,,0.00,VWS V14.01,2013-01-20 01:28:00,
2013-01-19 18:34:00,28.9,17.2,27.10,East,90,4.0,4.4,61,0.00,,,0.00,VWS V14.01,2013-01-20 01:34:00,
2013-01-19 18:40:00,28.7,17.3,27.10,East,90,0.0,4.4,62,0.00,,,0.00,VWS V14.01,2013-01-20 01:40:00,
2013-01-19 18:45:00,28.5,17.1,27.10,North,0,5.1,5.1,62,0.00,,,0.00,VWS V14.01,2013-01-20 01:45:00,
2013-01-19 18:52:00,28.2,16.9,27.10,NE,45,9.6,9.6,62,0.00,,,0.00,VWS V14.01,2013-01-20 01:52:00,
2013-01-19 18:58:00,28.2,17.2,27.09,NE,45,4.4,9.6,63,0.00,,,0.00,VWS V14.01,2013-01-20 01:58:00,
2013-01-19 19:03:00,28.2,17.2,27.09,NE,45,5.3,5.3,63,0.00,,,0.00,VWS V14.01,2013-01-20 02:03:00,
2013-01-19 19:09:00,28.0,17.4,27.09,NE,45,5.3,5.3,64,0.00,,,0.00,VWS V14.01,2013-01-20 02:09:00,
2013-01-19 19:14:00,28.0,17.0,27.09,East,90,0.0,5.3,63,0.00,,,0.00,VWS V14.01,2013-01-20 02:14:00,
2013-01-19 19:20:00,27.6,16.7,27.09,East,90,1.5,4.9,63,0.00,,,0.00,VWS V14.01,2013-01-20 02:20:00,
2013-01-19 19:25:00,27.6,17.0,27.09,ESE,112,3.1,4.9,64,0.00,,,0.00,VWS V14.01,2013-01-20 02:25:00,
2013-01-19 19:31:00,27.3,16.8,27.09,ENE,68,3.8,3.8,64,0.00,,,0.00,VWS V14.01,2013-01-20 02:31:00,
2013-01-19 19:36:00,27.3,16.8,27.09,East,90,3.3,3.8,64,0.00,,,0.00,VWS V14.01,2013-01-20 02:36:00,
2013-01-19 19:42:00,26.9,16.7,27.10,ESE,112,1.1,3.8,65,0.00,,,0.00,VWS V14.01,2013-01-20 02:42:00,
2013-01-19 19:47:00,26.7,16.5,27.10,SSE,158,0.0,1.7,65,0.00,,,0.00,VWS V14.01,2013-01-20 02:47:00,
2013-01-19 19:53:00,26.7,16.9,27.10,South,180,0.0,1.7,66,0.00,,,0.00,VWS V14.01,2013-01-20 02:53:00,
2013-01-19 19:58:00,26.6,16.8,27.09,SE,135,1.3,1.7,66,0.00,,,0.00,VWS V14.01,2013-01-20 02:58:00,
2013-01-19 20:03:00,26.4,16.6,27.10,SSE,158,0.0,0.0,66,0.00,,,0.00,VWS V14.01,2013-01-20 03:03:00,
2013-01-19 20:09:00,26.4,16.6,27.10,SE,135,0.0,0.0,66,0.00,,,0.00,VWS V14.01,2013-01-20 03:09:00,
2013-01-19 20:15:00,26.4,16.6,27.11,SE,135,0.0,0.0,66,0.00,,,0.00,VWS V14.01,2013-01-20 03:15:00,
2013-01-19 20:20:00,26.2,16.4,27.10,ESE,112,0.6,0.6,66,0.00,,,0.00,VWS V14.01,2013-01-20 03:20:00,
2013-01-19 20:25:00,26.2,16.8,27.09,SE,135,0.0,0.6,67,0.00,,,0.00,VWS V14.01,2013-01-20 03:25:00,
2013-01-19 20:31:00,26.0,16.6,27.10,SE,135,2.4,2.4,67,0.00,,,0.00,VWS V14.01,2013-01-20 03:31:00,
2013-01-19 20:37:00,26.0,16.9,27.09,ESE,112,0.0,2.9,68,0.00,,,0.00,VWS V14.01,2013-01-20 03:37:00,
2013-01-19 20:42:00,25.8,16.7,27.10,ESE,112,0.0,2.9,68,0.00,,,0.00,VWS V14.01,2013-01-20 03:42:00,
2013-01-19 20:47:00,25.8,16.7,27.09,ESE,112,1.5,1.5,68,0.00,,,0.00,VWS V14.01,2013-01-20 03:47:00,
2013-01-19 20:53:00,25.8,16.7,27.09,SE,135,3.8,3.8,68,0.00,,,0.00,VWS V14.01,2013-01-20 03:53:00,
2013-01-19 20:58:00,25.7,17.3,27.09,ESE,112,6.9,9.6,70,0.00,,,0.00,VWS V14.01,2013-01-20 03:58:00,
2013-01-19 21:03:00,25.5,17.4,27.09,ESE,112,6.9,6.9,71,0.00,,,0.00,VWS V14.01,2013-01-20 04:03:00,
2013-01-19 21:09:00,25.3,17.2,27.08,SE,135,7.3,8.5,71,0.00,,,0.00,VWS V14.01,2013-01-20 04:09:00,
2013-01-19 21:14:00,25.1,17.0,27.08,ESE,112,2.9,8.5,71,0.00,,,0.00,VWS V14.01,2013-01-20 04:14:00,
2013-01-19 21:20:00,24.9,17.2,27.08,ESE,112,2.6,5.5,72,0.00,,,0.00,VWS V14.01,2013-01-20 04:20:00,
2013-01-19 21:25:00,24.6,16.9,27.08,ESE,112,3.5,5.5,72,0.00,,,0.00,VWS V14.01,2013-01-20 04:25:00,
2013-01-19 21:30:00,24.6,16.9,27.07,ENE,68,0.0,5.5,72,0.00,,,0.00,VWS V14.01,2013-01-20 04:30:00,
2013-01-19 21:36:00,24.6,16.9,27.08,East,90,0.0,0.0,72,0.00,,,0.00,VWS V14.01,2013-01-20 04:36:00,
2013-01-19 21:42:00,24.4,17.0,27.07,ESE,112,3.5,3.5,73,0.00,,,0.00,VWS V14.01,2013-01-20 04:42:00,
2013-01-19 21:48:00,24.4,17.0,27.07,East,90,5.1,6.7,73,0.00,,,0.00,VWS V14.01,2013-01-20 04:48:00,
2013-01-19 21:53:00,24.4,17.0,27.06,East,90,3.1,6.7,73,0.00,,,0.00,VWS V14.01,2013-01-20 04:53:00,
2013-01-19 21:58:00,24.2,16.8,27.07,ESE,112,1.3,8.0,73,0.00,,,0.00,VWS V14.01,2013-01-20 04:58:00,
2013-01-19 22:00:00,24.0,16.6,27.07,ESE,112,0.0,8.0,73,0.00,,,0.00,VWS V14.01,2013-01-20 05:00:00,
2013-01-19 22:01:00,24.0,16.6,27.07,ESE,112,0.0,0.0,73,0.00,,,0.00,VWS V14.01,2013-01-20 05:01:00,
2013-01-19 22:04:00,24.0,16.6,27.07,ESE,112,2.6,2.6,73,0.00,,,0.00,VWS V14.01,2013-01-20 05:04:00,
2013-01-19 22:09:00,23.9,16.5,27.06,SE,135,2.0,2.6,73,0.00,,,0.00,VWS V14.01,2013-01-20 05:09:00,
2013-01-19 22:14:00,23.7,16.3,27.06,ESE,112,3.8,7.3,73,0.00,,,0.00,VWS V14.01,2013-01-20 05:14:00,
2013-01-19 22:19:00,23.7,16.6,27.06,ESE,112,6.4,6.4,74,0.00,,,0.00,VWS V14.01,2013-01-20 05:19:00,
2013-01-19 22:24:00,23.5,16.5,27.05,ESE,112,4.4,6.4,74,0.00,,,0.00,VWS V14.01,2013-01-20 05:24:00,
2013-01-19 22:29:00,23.3,16.2,27.05,SE,135,4.6,6.4,74,0.00,,,0.00,VWS V14.01,2013-01-20 05:29:00,
2013-01-19 22:34:00,22.8,15.8,27.04,ESE,112,0.0,3.1,74,0.00,,,0.00,VWS V14.01,2013-01-20 05:34:00,
2013-01-19 22:39:00,22.8,15.8,27.04,SE,135,6.0,6.0,74,0.00,,,0.00,VWS V14.01,2013-01-20 05:39:00,
2013-01-19 22:44:00,22.6,15.9,27.04,ESE,112,4.4,6.4,75,0.00,,,0.00,VWS V14.01,2013-01-20 05:44:00,
2013-01-19 22:49:00,22.2,15.5,27.04,ESE,112,4.9,4.9,75,0.00,,,0.00,VWS V14.01,2013-01-20 05:49:00,
2013-01-19 22:54:00,22.2,15.5,27.04,ESE,112,5.3,5.3,75,0.00,,,0.00,VWS V14.01,2013-01-20 05:54:00,
2013-01-19 22:59:00,22.1,15.7,27.04,ESE,112,3.3,6.2,76,0.00,,,0.00,VWS V14.01,2013-01-20 05:59:00,
2013-01-19 23:04:00,21.9,15.5,27.04,ESE,112,4.6,4.6,76,0.00,,,0.00,VWS V14.01,2013-01-20 06:04:00,
2013-01-19 23:09:00,21.9,15.5,27.03,ESE,112,6.7,6.7,76,0.00,,,0.00,VWS V14.01,2013-01-20 06:09:00,
2013-01-19 23:14:00,21.9,15.5,27.02,ESE,112,6.0,6.7,76,0.00,,,0.00,VWS V14.01,2013-01-20 06:14:00,
2013-01-19 23:19:00,21.9,15.5,27.03,ESE,112,2.4,8.7,76,0.00,,,0.00,VWS V14.01,2013-01-20 06:19:00,
2013-01-19 23:24:00,21.9,15.5,27.03,ESE,112,1.5,8.7,76,0.00,,,0.00,VWS V14.01,2013-01-20 06:24:00,
2013-01-19 23:29:00,21.9,15.5,27.03,East,90,5.1,8.7,76,0.00,,,0.00,VWS V14.01,2013-01-20 06:29:00,
2013-01-19 23:35:00,21.9,15.2,27.02,ESE,112,2.6,9.3,75,0.00,,,0.00,VWS V14.01,2013-01-20 06:35:00,
2013-01-19 23:40:00,21.9,15.2,27.02,ESE,112,4.0,9.3,75,0.00,,,0.00,VWS V14.01,2013-01-20 06:40:00,
2013-01-19 23:45:00,21.9,15.2,27.01,ESE,112,4.4,9.3,75,0.00,,,0.00,VWS V14.01,2013-01-20 06:45:00,
2013-01-19 23:50:00,21.9,15.2,27.01,ESE,112,3.8,4.6,75,0.00,,,0.00,VWS V14.01,2013-01-20 06:50:00,
2013-01-19 23:55:00,21.9,15.2,27.01,ESE,112,5.3,6.9,75,0.00,,,0.00,VWS V14.01,2013-01-20 06:55:00,